createdAt,value
2022-08-27T00:01:55.866Z,11.30
2022-08-27T00:04:43.559Z,20.63
2022-08-27T00:07:31.014Z,19.77
2022-08-27T00:10:20.494Z,16.83
2022-08-27T00:13:07.613Z,22.17
2022-08-27T00:15:56.000Z,19.43
2022-08-27T00:18:48.043Z,29.40
2022-08-27T00:21:35.205Z,15.73
2022-08-27T00:24:21.967Z,15.37
2022-08-27T00:27:08.540Z,15.47
2022-08-27T00:29:56.107Z,16.37
2022-08-27T00:32:44.725Z,14.13
2022-08-27T00:35:31.821Z,16.63
2022-08-27T00:38:18.820Z,14.37
2022-08-27T00:41:06.916Z,16.90
2022-08-27T00:43:57.369Z,15.63
2022-08-27T00:46:47.301Z,13.70
2022-08-27T00:49:39.754Z,22.13
2022-08-27T00:52:30.246Z,13.03
2022-08-27T00:55:20.543Z,14.93
2022-08-27T00:58:12.257Z,27.47
2022-08-27T01:01:01.945Z,14.60
2022-08-27T01:03:53.707Z,19.53
2022-08-27T01:06:41.679Z,24.07
2022-08-27T01:09:29.643Z,23.53
2022-08-27T01:12:19.050Z,13.60
2022-08-27T01:15:22.184Z,16.27
2022-08-27T01:18:13.420Z,31.47
2022-08-27T01:21:07.753Z,18.40
2022-08-27T01:24:14.718Z,18.10
2022-08-27T01:27:04.768Z,14.90
2022-08-27T01:29:54.727Z,12.97
2022-08-27T01:32:42.328Z,12.57
2022-08-27T01:35:29.118Z,15.33
2022-08-27T01:38:18.970Z,13.97
2022-08-27T01:41:20.551Z,19.53
2022-08-27T01:44:08.511Z,32.23
2022-08-27T01:46:56.938Z,24.87
2022-08-27T01:49:44.080Z,13.30
2022-08-27T01:52:31.915Z,24.30
2022-08-27T01:55:21.787Z,22.00
2022-08-27T01:58:08.395Z,14.17
2022-08-27T02:01:05.543Z,15.40
2022-08-27T02:03:52.497Z,17.10
2022-08-27T02:06:39.367Z,39.43
2022-08-27T02:09:26.811Z,14.63
2022-08-27T02:12:14.215Z,19.00
2022-08-27T02:15:01.584Z,17.20
2022-08-27T02:17:49.711Z,27.40
2022-08-27T02:20:37.381Z,17.00
2022-08-27T02:23:23.903Z,13.17
2022-08-27T02:26:11.013Z,13.33
2022-08-27T02:28:57.597Z,16.10
2022-08-27T02:31:44.444Z,18.00
2022-08-27T02:34:32.500Z,13.40
2022-08-27T02:37:19.204Z,22.00
2022-08-27T02:40:08.213Z,13.20
2022-08-27T02:42:54.819Z,15.63
2022-08-27T02:45:41.412Z,18.07
2022-08-27T02:48:28.736Z,15.80
2022-08-27T02:51:16.908Z,13.53
2022-08-27T02:54:04.916Z,13.73
2022-08-27T02:56:55.764Z,18.77
2022-08-27T02:59:43.244Z,17.23
2022-08-27T03:02:30.208Z,29.10
2022-08-27T03:05:19.256Z,17.07
2022-08-27T03:08:08.011Z,23.63
2022-08-27T03:10:55.256Z,21.10
2022-08-27T03:13:42.283Z,28.43
2022-08-27T03:16:29.533Z,17.33
2022-08-27T03:19:19.810Z,24.50
2022-08-27T03:22:10.971Z,25.77
2022-08-27T03:24:58.754Z,28.63
2022-08-27T03:27:45.639Z,23.83
2022-08-27T03:30:32.695Z,16.33
2022-08-27T03:33:19.797Z,13.90
2022-08-27T03:36:08.801Z,18.87
2022-08-27T03:38:55.708Z,17.07
2022-08-27T03:41:55.478Z,17.97
2022-08-27T03:44:42.418Z,20.40
2022-08-27T03:47:29.125Z,19.57
2022-08-27T03:50:15.804Z,22.10
2022-08-27T03:53:02.576Z,21.50
2022-08-27T03:55:50.023Z,19.57
2022-08-27T03:58:38.961Z,18.43
2022-08-27T04:01:25.626Z,22.23
2022-08-27T04:04:14.156Z,26.43
2022-08-27T04:07:01.439Z,16.00
2022-08-27T04:09:47.905Z,13.53
2022-08-27T04:12:34.703Z,22.20
2022-08-27T04:15:22.671Z,23.57
2022-08-27T04:18:09.417Z,25.23
2022-08-27T04:20:56.855Z,19.43
2022-08-27T04:23:43.997Z,17.97
2022-08-27T04:26:30.908Z,16.10
2022-08-27T04:29:17.574Z,15.60
2022-08-27T04:32:06.560Z,18.10
2022-08-27T04:34:55.611Z,14.83
2022-08-27T04:37:42.371Z,12.40
2022-08-27T04:40:49.221Z,16.70
2022-08-27T04:43:35.653Z,18.83
2022-08-27T04:46:24.744Z,16.23
2022-08-27T04:49:16.482Z,18.37
2022-08-27T04:52:03.507Z,13.00
2022-08-27T04:54:51.681Z,18.20
2022-08-27T04:57:38.446Z,16.70
2022-08-27T05:00:25.447Z,17.47
2022-08-27T05:03:12.523Z,39.10
2022-08-27T05:06:07.230Z,17.90
2022-08-27T05:08:55.041Z,14.67
2022-08-27T05:11:42.821Z,13.40
2022-08-27T05:14:32.407Z,23.30
2022-08-27T05:17:18.885Z,14.23
2022-08-27T05:20:06.567Z,11.43
2022-08-27T05:22:55.395Z,15.17
2022-08-27T05:25:44.296Z,19.80
2022-08-27T05:28:30.856Z,13.77
2022-08-27T05:31:19.581Z,20.90
2022-08-27T05:34:10.254Z,13.03
2022-08-27T05:36:58.106Z,17.10
2022-08-27T05:39:46.222Z,10.57
2022-08-27T05:42:34.451Z,9.50
2022-08-27T05:45:21.109Z,15.90
2022-08-27T05:48:07.923Z,10.97
2022-08-27T05:50:54.780Z,20.27
2022-08-27T05:53:42.224Z,16.50
2022-08-27T05:56:32.050Z,12.20
2022-08-27T05:59:37.384Z,11.13
2022-08-27T06:02:24.387Z,15.80
2022-08-27T06:05:10.958Z,11.60
2022-08-27T06:07:57.386Z,10.63
2022-08-27T06:10:44.281Z,9.23
2022-08-27T06:13:33.495Z,13.43
2022-08-27T06:16:21.130Z,10.60
2022-08-27T06:19:09.000Z,13.47
2022-08-27T06:22:01.150Z,11.90
2022-08-27T06:24:57.288Z,12.47
2022-08-27T06:27:44.411Z,14.20
2022-08-27T06:30:32.383Z,14.53
2022-08-27T06:33:21.376Z,9.20
2022-08-27T06:36:10.700Z,8.40
2022-08-27T06:38:58.156Z,9.13
2022-08-27T06:41:45.127Z,7.37
2022-08-27T06:44:31.551Z,5.80
2022-08-27T06:47:21.303Z,7.50
2022-08-27T06:50:08.557Z,7.97
2022-08-27T06:52:55.175Z,9.50
2022-08-27T06:55:43.684Z,7.80
2022-08-27T06:58:30.228Z,8.07
2022-08-27T07:01:19.531Z,6.57
2022-08-27T07:04:10.402Z,7.13
2022-08-27T07:06:57.301Z,8.13
2022-08-27T07:09:43.989Z,7.30
2022-08-27T07:12:30.890Z,9.13
2022-08-27T07:15:18.429Z,10.53
2022-08-27T07:18:08.866Z,11.17
2022-08-27T07:20:58.916Z,8.97
2022-08-27T07:23:45.623Z,10.37
2022-08-27T07:26:34.786Z,7.97
2022-08-27T07:29:21.598Z,14.10
2022-08-27T07:32:08.139Z,16.97
2022-08-27T07:34:54.953Z,9.27
2022-08-27T07:37:43.273Z,9.23
2022-08-27T07:40:30.117Z,9.43
2022-08-27T07:43:34.794Z,9.60
2022-08-27T07:46:21.995Z,9.97
2022-08-27T07:49:08.481Z,11.23
2022-08-27T07:51:55.256Z,10.63
2022-08-27T07:54:43.512Z,9.20
2022-08-27T07:57:31.630Z,8.97
2022-08-27T08:00:18.208Z,8.70
2022-08-27T08:03:05.119Z,11.30
2022-08-27T08:05:53.388Z,9.87
2022-08-27T08:08:41.752Z,10.50
2022-08-27T08:11:32.008Z,13.03
2022-08-27T08:14:19.524Z,16.90
2022-08-27T08:17:06.472Z,11.17
2022-08-27T08:20:18.481Z,10.33
2022-08-27T08:23:04.598Z,10.87
2022-08-27T08:25:57.768Z,11.70
2022-08-27T08:28:46.436Z,14.53
2022-08-27T08:31:32.828Z,12.03
2022-08-27T08:34:20.476Z,14.77
2022-08-27T08:37:07.666Z,11.47
2022-08-27T08:39:55.105Z,15.87
2022-08-27T08:42:50.669Z,13.93
2022-08-27T08:45:43.422Z,14.93
2022-08-27T08:48:32.457Z,15.10
2022-08-27T08:51:26.646Z,12.10
2022-08-27T08:54:17.897Z,10.63
2022-08-27T08:57:09.292Z,14.63
2022-08-27T09:00:01.760Z,10.67
2022-08-27T09:02:54.902Z,10.57
2022-08-27T09:05:46.910Z,9.77
2022-08-27T09:08:40.649Z,11.30
2022-08-27T09:11:35.220Z,10.30
2022-08-27T09:14:37.083Z,12.83
2022-08-27T09:17:24.384Z,9.87
2022-08-27T09:20:14.510Z,10.40
2022-08-27T09:23:11.883Z,7.53
2022-08-27T09:25:58.773Z,9.80
2022-08-27T09:29:03.015Z,6.37
2022-08-27T09:31:55.683Z,6.83
2022-08-27T09:34:44.608Z,8.43
2022-08-27T09:37:34.990Z,7.13
2022-08-27T09:40:29.763Z,7.80
2022-08-27T09:43:24.364Z,16.97
2022-08-27T09:46:20.524Z,8.60
2022-08-27T09:49:12.434Z,9.27
2022-08-27T09:51:59.725Z,10.17
2022-08-27T09:54:48.266Z,7.27
2022-08-27T09:57:36.988Z,10.93
2022-08-27T10:00:34.673Z,10.33
2022-08-27T10:03:23.656Z,7.63
2022-08-27T10:06:11.089Z,9.73
2022-08-27T10:09:06.490Z,9.40
2022-08-27T10:12:01.001Z,10.07
2022-08-27T10:14:52.501Z,8.97
2022-08-27T10:17:47.654Z,8.17
2022-08-27T10:20:44.871Z,9.80
2022-08-27T10:23:40.986Z,8.70
2022-08-27T10:26:33.703Z,8.83
2022-08-27T10:29:34.129Z,10.83
2022-08-27T10:32:39.151Z,8.73
2022-08-27T10:35:29.813Z,7.07
2022-08-27T10:38:22.700Z,12.53
2022-08-27T10:41:17.544Z,11.70
2022-08-27T10:44:18.157Z,9.93
2022-08-27T10:47:18.173Z,11.37
2022-08-27T10:50:08.477Z,8.50
2022-08-27T10:53:01.305Z,10.67
2022-08-27T10:55:52.567Z,10.17
2022-08-27T10:58:49.931Z,9.20
2022-08-27T11:01:47.767Z,9.33
2022-08-27T11:04:40.854Z,9.83
2022-08-27T11:07:31.840Z,7.93
2022-08-27T11:10:23.350Z,9.77
2022-08-27T11:13:15.191Z,8.87
2022-08-27T11:16:04.019Z,9.37
2022-08-27T11:18:54.413Z,9.83
2022-08-27T11:21:47.918Z,10.43
2022-08-27T11:24:41.445Z,9.93
2022-08-27T11:27:33.912Z,12.83
2022-08-27T11:30:25.589Z,12.17
2022-08-27T11:33:20.372Z,10.70
2022-08-27T11:36:25.077Z,12.77
2022-08-27T11:39:25.891Z,11.10
2022-08-27T11:42:21.222Z,10.83
2022-08-27T11:45:16.817Z,10.93
2022-08-27T11:48:16.994Z,7.87
2022-08-27T11:51:06.998Z,14.50
2022-08-27T11:53:58.518Z,11.27
2022-08-27T11:56:46.826Z,10.53
2022-08-27T11:59:35.376Z,9.30
2022-08-27T12:02:26.173Z,10.33
2022-08-27T12:05:26.629Z,10.50
2022-08-27T12:08:18.849Z,11.10
2022-08-27T12:11:26.566Z,14.60
2022-08-27T12:14:32.339Z,12.97
2022-08-27T12:17:28.022Z,15.30
2022-08-27T12:20:25.338Z,9.60
2022-08-27T12:23:36.955Z,10.57
2022-08-27T12:26:32.795Z,11.00
2022-08-27T12:29:32.807Z,12.13
2022-08-27T12:32:27.151Z,9.10
2022-08-27T12:35:18.519Z,10.60
2022-08-27T12:38:14.810Z,15.20
2022-08-27T12:41:05.668Z,13.97
2022-08-27T12:44:03.156Z,10.90
2022-08-27T12:46:54.432Z,10.23
2022-08-27T12:49:46.675Z,10.80
2022-08-27T12:53:06.598Z,9.83
2022-08-27T12:56:04.063Z,13.33
2022-08-27T12:58:57.099Z,9.77
2022-08-27T13:01:59.742Z,9.90
2022-08-27T13:04:48.115Z,10.20
2022-08-27T13:07:41.549Z,14.90
2022-08-27T13:10:31.663Z,8.90
2022-08-27T13:13:20.926Z,11.77
2022-08-27T13:16:07.939Z,8.70
2022-08-27T13:18:55.939Z,11.80
2022-08-27T13:21:48.226Z,10.80
2022-08-27T13:24:37.082Z,11.00
2022-08-27T13:27:29.939Z,9.40
2022-08-27T13:30:19.859Z,8.77
2022-08-27T13:33:25.439Z,12.53
2022-08-27T13:36:13.396Z,9.17
2022-08-27T13:39:00.579Z,8.30
2022-08-27T13:41:50.068Z,11.27
2022-08-27T13:44:38.708Z,9.27
2022-08-27T13:47:27.732Z,7.60
2022-08-27T13:50:22.806Z,9.90
2022-08-27T13:53:30.284Z,10.13
2022-08-27T13:56:28.916Z,11.37
2022-08-27T13:59:24.176Z,11.37
2022-08-27T14:02:22.840Z,9.47
2022-08-27T14:05:14.909Z,11.50
2022-08-27T14:08:14.500Z,10.27
2022-08-27T14:11:05.337Z,10.83
2022-08-27T14:13:52.949Z,10.27
2022-08-27T14:16:39.844Z,12.10
2022-08-27T14:19:33.307Z,12.60
2022-08-27T14:22:24.966Z,12.67
2022-08-27T14:25:15.656Z,11.27
2022-08-27T14:28:02.908Z,10.17
2022-08-27T14:30:53.599Z,10.23
2022-08-27T14:33:40.826Z,10.27
2022-08-27T14:36:33.637Z,9.60
2022-08-27T14:39:26.572Z,10.07
2022-08-27T14:42:17.613Z,15.23
2022-08-27T14:45:04.845Z,10.97
2022-08-27T14:47:52.808Z,13.07
2022-08-27T14:50:39.388Z,14.37
2022-08-27T14:53:27.032Z,8.57
2022-08-27T14:56:13.650Z,10.67
2022-08-27T14:59:01.744Z,12.50
2022-08-27T15:01:48.932Z,10.47
2022-08-27T15:04:36.152Z,12.57
2022-08-27T15:07:23.593Z,11.20
2022-08-27T15:10:12.747Z,15.27
2022-08-27T15:12:59.936Z,12.47
2022-08-27T15:15:48.477Z,14.37
2022-08-27T15:18:39.024Z,15.63
2022-08-27T15:21:26.441Z,13.60
2022-08-27T15:24:18.030Z,15.00
2022-08-27T15:27:05.172Z,14.23
2022-08-27T15:29:51.604Z,10.27
2022-08-27T15:32:45.209Z,13.90
2022-08-27T15:35:32.108Z,12.83
2022-08-27T15:38:18.789Z,12.53
2022-08-27T15:41:05.589Z,17.07
2022-08-27T15:43:52.693Z,13.93
2022-08-27T15:46:39.730Z,10.37
2022-08-27T15:49:28.027Z,10.33
2022-08-27T15:52:25.273Z,11.83
2022-08-27T15:55:32.076Z,12.40
2022-08-27T15:58:33.831Z,12.30
2022-08-27T16:01:38.650Z,13.90
2022-08-27T16:04:31.811Z,9.57
2022-08-27T16:07:21.441Z,11.70
2022-08-27T16:10:22.697Z,10.23
2022-08-27T16:13:12.246Z,12.80
2022-08-27T16:16:09.668Z,13.70
2022-08-27T16:19:16.039Z,11.23
2022-08-27T16:22:18.668Z,15.87
2022-08-27T16:25:30.923Z,12.27
2022-08-27T16:28:27.238Z,11.50
2022-08-27T16:31:22.522Z,8.90
2022-08-27T16:34:26.254Z,14.83
2022-08-27T16:37:29.836Z,13.77
2022-08-27T16:40:21.734Z,9.77
2022-08-27T16:43:13.649Z,9.53
2022-08-27T16:46:04.965Z,9.33
2022-08-27T16:49:12.159Z,9.60
2022-08-27T16:52:21.313Z,10.03
2022-08-27T16:55:16.501Z,8.07
2022-08-27T16:58:13.072Z,8.33
2022-08-27T17:01:10.422Z,9.40
2022-08-27T17:04:12.877Z,9.83
2022-08-27T17:07:03.162Z,7.33
2022-08-27T17:09:52.023Z,8.43
2022-08-27T17:12:41.193Z,10.90
2022-08-27T17:15:28.574Z,6.97
2022-08-27T17:18:17.698Z,7.77
2022-08-27T17:21:08.300Z,8.73
2022-08-27T17:23:59.740Z,9.20
2022-08-27T17:26:48.482Z,9.57
2022-08-27T17:29:38.163Z,12.83
2022-08-27T17:32:26.427Z,9.23
2022-08-27T17:35:15.905Z,9.23
2022-08-27T17:38:04.834Z,7.90
2022-08-27T17:40:54.308Z,9.20
2022-08-27T17:43:42.673Z,9.63
2022-08-27T17:46:31.302Z,15.50
2022-08-27T17:49:19.122Z,9.57
2022-08-27T17:52:10.743Z,7.00
2022-08-27T17:54:57.728Z,8.73
2022-08-27T17:57:44.762Z,6.40
2022-08-27T18:00:33.800Z,9.83
2022-08-27T18:03:21.866Z,9.80
2022-08-27T18:06:08.987Z,5.83
2022-08-27T18:08:55.608Z,9.40
2022-08-27T18:11:42.189Z,10.53
2022-08-27T18:14:28.803Z,13.47
2022-08-27T18:17:15.686Z,7.53
2022-08-27T18:20:05.650Z,10.17
2022-08-27T18:22:52.953Z,7.40
2022-08-27T18:25:40.443Z,11.43
2022-08-27T18:28:28.871Z,5.97
2022-08-27T18:31:18.908Z,9.30
2022-08-27T18:34:05.779Z,15.53
2022-08-27T18:36:53.700Z,6.30
2022-08-27T18:39:40.747Z,8.27
2022-08-27T18:42:40.150Z,9.50
2022-08-27T18:45:30.153Z,6.30
2022-08-27T18:48:21.990Z,5.93
2022-08-27T18:51:12.698Z,4.83
2022-08-27T18:54:03.628Z,5.90
2022-08-27T18:56:53.577Z,11.13
2022-08-27T18:59:42.381Z,5.97
2022-08-27T19:02:33.386Z,5.43
2022-08-27T19:05:24.988Z,7.87
2022-08-27T19:08:11.687Z,3.93
2022-08-27T19:10:59.793Z,5.80
2022-08-27T19:13:50.336Z,8.40
2022-08-27T19:16:42.972Z,3.23
2022-08-27T19:19:30.130Z,6.47
2022-08-27T19:22:16.758Z,6.80
2022-08-27T19:25:05.124Z,7.03
2022-08-27T19:27:54.497Z,3.93
2022-08-27T19:30:40.929Z,10.77
2022-08-27T19:33:27.595Z,8.40
2022-08-27T19:36:16.886Z,4.87
2022-08-27T19:39:04.392Z,6.20
2022-08-27T19:41:51.138Z,5.57
2022-08-27T19:44:39.212Z,3.60
2022-08-27T19:47:26.337Z,3.90
2022-08-27T19:50:16.222Z,2.47
2022-08-27T19:53:02.758Z,5.07
2022-08-27T19:55:49.584Z,6.13
2022-08-27T19:58:36.851Z,6.30
2022-08-27T20:01:25.019Z,4.17
2022-08-27T20:04:11.677Z,6.57
2022-08-27T20:06:58.302Z,4.23
2022-08-27T20:09:45.409Z,10.33
2022-08-27T20:12:33.425Z,5.50
2022-08-27T20:15:23.469Z,3.83
2022-08-27T20:18:15.879Z,7.67
2022-08-27T20:21:10.222Z,3.23
2022-08-27T20:23:59.202Z,5.93
2022-08-27T20:26:47.900Z,4.83
2022-08-27T20:29:36.398Z,5.20
2022-08-27T20:32:29.246Z,6.00
2022-08-27T20:35:18.545Z,3.70
2022-08-27T20:38:05.852Z,3.40
2022-08-27T20:40:53.247Z,5.93
2022-08-27T20:43:40.161Z,3.90
2022-08-27T20:46:30.629Z,6.97
2022-08-27T20:49:17.196Z,6.57
2022-08-27T20:52:08.618Z,4.60
2022-08-27T20:54:57.592Z,10.37
2022-08-27T20:58:06.932Z,6.77
2022-08-27T21:00:55.846Z,3.60
2022-08-27T21:03:42.469Z,10.07
2022-08-27T21:06:32.964Z,7.40
2022-08-27T21:09:21.528Z,5.40
2022-08-27T21:12:08.596Z,7.20
2022-08-27T21:14:56.463Z,6.57
2022-08-27T21:17:43.900Z,6.13
2022-08-27T21:20:30.590Z,6.50
2022-08-27T21:23:17.299Z,10.37
2022-08-27T21:26:09.947Z,7.80
2022-08-27T21:28:57.123Z,12.10
2022-08-27T21:31:43.790Z,6.67
2022-08-27T21:34:31.204Z,5.23
2022-08-27T21:37:17.965Z,8.63
2022-08-27T21:40:06.782Z,8.17
2022-08-27T21:42:55.915Z,7.60
2022-08-27T21:45:43.108Z,11.30
2022-08-27T21:48:29.624Z,5.13
2022-08-27T21:51:24.491Z,9.73
2022-08-27T21:54:12.040Z,10.77
2022-08-27T21:56:58.575Z,8.10
2022-08-27T21:59:49.457Z,6.37
2022-08-27T22:02:40.202Z,9.87
2022-08-27T22:05:27.089Z,13.73
2022-08-27T22:08:16.783Z,8.50
2022-08-27T22:11:03.282Z,7.97
2022-08-27T22:13:50.112Z,8.97
2022-08-27T22:16:39.605Z,7.20
2022-08-27T22:19:26.569Z,11.30
2022-08-27T22:22:12.955Z,10.73
2022-08-27T22:25:00.240Z,11.33
2022-08-27T22:27:47.441Z,13.27
2022-08-27T22:30:34.009Z,12.57
2022-08-27T22:33:22.422Z,8.43
2022-08-27T22:36:09.727Z,10.03
2022-08-27T22:39:03.391Z,9.27
2022-08-27T22:41:50.387Z,9.83
2022-08-27T22:44:40.496Z,9.23
2022-08-27T22:47:26.963Z,9.77
2022-08-27T22:50:15.417Z,8.13
2022-08-27T22:53:04.632Z,10.43
2022-08-27T22:55:53.587Z,12.93
2022-08-27T22:58:46.054Z,12.40
2022-08-27T23:01:36.940Z,10.47
2022-08-27T23:04:39.259Z,8.67
2022-08-27T23:07:33.624Z,16.37
2022-08-27T23:10:25.754Z,9.83
2022-08-27T23:13:16.852Z,10.23
2022-08-27T23:16:06.465Z,8.70
2022-08-27T23:18:54.604Z,12.67
2022-08-27T23:21:42.605Z,10.80
2022-08-27T23:24:32.140Z,9.00
2022-08-27T23:27:31.347Z,9.30
2022-08-27T23:30:19.687Z,10.67
2022-08-27T23:33:07.787Z,8.90
2022-08-27T23:35:54.813Z,11.27
2022-08-27T23:38:41.583Z,8.37
2022-08-27T23:41:30.618Z,12.30
2022-08-27T23:44:17.106Z,9.93
2022-08-27T23:47:04.048Z,9.37
2022-08-27T23:49:51.215Z,9.23
2022-08-27T23:52:38.573Z,10.70
2022-08-27T23:55:25.660Z,11.77
2022-08-27T23:58:13.798Z,10.53
